Time;durP1;ratioP1;P1;durP2;ratioP2;P2;SDS_P1;SDS_P2;PMS_P1;PMS_P2;Temp;Humidity;BMP_temperature;BMP_pressure;BME280_temperature;BME280_humidity;BME280_pressure;Samples;Min_cycle;Max_cycle;Signal;HPM_P1;HPM_P2
2023/05/26 00:04:17;;;;;;;21.17;12.00;;;10.40;99.90;;;;;;2614343;54;20669;-71
2023/05/26 00:10:05;;;;;;;19.27;13.00;;;10.40;99.90;;;;;;2614557;31;20630;-72
2023/05/26 00:15:53;;;;;;;18.63;11.37;;;10.40;99.90;;;;;;2614791;54;20371;-72
2023/05/26 00:25:47;;;;;;;24.80;13.53;;;10.20;99.90;;;;;;2613907;54;20375;-71
2023/05/26 00:31:35;;;;;;;16.83;11.40;;;10.00;99.90;;;;;;2614675;54;20539;-72
2023/05/26 00:37:22;;;;;;;25.30;12.07;;;9.90;99.90;;;;;;2614525;39;20956;-72
2023/05/26 00:43:10;;;;;;;26.93;12.27;;;9.80;99.90;;;;;;2613031;54;20162;-71
2023/05/26 00:48:58;;;;;;;25.33;11.40;;;9.70;99.90;;;;;;2614232;54;20121;-72
2023/05/26 00:54:46;;;;;;;18.37;10.37;;;9.60;99.90;;;;;;2613117;54;20991;-71
2023/05/26 01:00:34;;;;;;;17.17;9.83;;;9.50;99.90;;;;;;2613805;54;20654;-72
2023/05/26 01:06:22;;;;;;;19.50;10.10;;;9.40;99.90;;;;;;2613536;54;20391;-71
2023/05/26 01:12:15;;;;;;;21.93;10.23;;;9.30;99.90;;;;;;2614289;39;20755;-73
2023/05/26 01:18:10;;;;;;;21.53;12.30;;;9.20;99.90;;;;;;2614588;54;20394;-71
2023/05/26 01:21:14;;;;;;;19.77;10.90;;;9.20;99.90;;;;;;2614031;51;20999;-72
2023/05/26 01:30:21;;;;;;;23.20;10.10;;;9.00;99.90;;;;;;2614537;54;20350;-71
2023/05/26 01:36:08;;;;;;;19.50;10.30;;;8.90;99.90;;;;;;2614769;54;20390;-71
2023/05/26 01:42:03;;;;;;;35.23;11.07;;;8.80;99.90;;;;;;2614947;54;20162;-71
2023/05/26 01:47:57;;;;;;;18.30;9.43;;;8.70;99.90;;;;;;2613838;54;21009;-71
2023/05/26 01:53:50;;;;;;;26.33;10.63;;;8.60;99.90;;;;;;2615112;39;20778;-71
2023/05/26 01:59:38;;;;;;;20.67;10.13;;;8.60;99.90;;;;;;2613697;54;20438;-72
2023/05/26 02:05:26;;;;;;;20.97;10.67;;;8.50;99.90;;;;;;2613729;54;20142;-71
2023/05/26 02:11:13;;;;;;;29.37;10.10;;;8.40;99.90;;;;;;2614395;54;20680;-71
2023/05/26 02:17:01;;;;;;;21.37;10.10;;;8.30;99.90;;;;;;2614163;54;21023;-71
2023/05/26 02:26:11;;;;;;;20.17;9.67;;;8.30;99.90;;;;;;2614304;47;20580;-71
2023/05/26 02:31:59;;;;;;;29.07;9.70;;;8.20;99.90;;;;;;2614245;39;20534;-71
2023/05/26 02:37:47;;;;;;;18.50;9.80;;;8.20;99.90;;;;;;2614535;39;20578;-72
2023/05/26 02:43:35;;;;;;;30.00;11.23;;;8.10;99.90;;;;;;2614201;54;20343;-71
2023/05/26 02:49:23;;;;;;;29.07;11.37;;;8.10;99.90;;;;;;2614387;46;20371;-71
2023/05/26 02:55:11;;;;;;;32.87;10.97;;;8.00;99.90;;;;;;2614340;54;20359;-71
2023/05/26 03:01:00;;;;;;;30.97;10.07;;;8.00;99.90;;;;;;2613682;54;20431;-72
2023/05/26 03:06:47;;;;;;;24.87;9.50;;;8.00;99.90;;;;;;2614910;54;21009;-73
2023/05/26 03:12:35;;;;;;;29.00;9.93;;;8.10;99.90;;;;;;2613512;54;20151;-73
2023/05/26 03:18:23;;;;;;;25.90;11.83;;;8.20;99.90;;;;;;2614872;54;20169;-73
2023/05/26 03:21:33;;;;;;;28.43;11.10;;;8.20;99.90;;;;;;2614507;54;20424;-72
2023/05/26 03:23:58;;;;;;;20.93;9.80;;;8.20;99.90;;;;;;2613446;47;20220;-72
2023/05/26 03:29:46;;;;;;;28.33;9.83;;;8.40;99.90;;;;;;2614328;54;20121;-72
2023/05/26 03:35:33;;;;;;;42.77;12.47;;;8.50;99.90;;;;;;2615356;54;20263;-72
2023/05/26 03:41:22;;;;;;;27.20;12.10;;;8.50;99.90;;;;;;2614766;54;20242;-72
2023/05/26 03:47:09;;;;;;;27.97;10.93;;;8.50;99.90;;;;;;2614930;54;20443;-72
2023/05/26 03:52:57;;;;;;;30.37;11.00;;;8.60;99.90;;;;;;2613993;54;20150;-73
2023/05/26 03:58:45;;;;;;;24.80;10.83;;;8.60;99.90;;;;;;2614459;54;20232;-73
2023/05/26 04:04:34;;;;;;;22.30;10.50;;;8.70;99.90;;;;;;2613881;54;20138;-72
2023/05/26 04:10:22;;;;;;;27.93;11.40;;;8.90;99.90;;;;;;2615204;54;20390;-72
2023/05/26 04:16:10;;;;;;;21.63;11.30;;;9.00;99.90;;;;;;2613894;54;20187;-73
2023/05/26 04:26:00;;;;;;;28.83;11.67;;;9.10;99.90;;;;;;2614160;54;20435;-72
2023/05/26 04:31:48;;;;;;;26.93;12.60;;;9.30;99.90;;;;;;2614751;54;20391;-72
2023/05/26 04:37:38;;;;;;;30.37;11.40;;;9.20;99.90;;;;;;2613279;54;20664;-72
2023/05/26 04:43:26;;;;;;;20.13;10.43;;;9.30;99.90;;;;;;2614969;54;20414;-72
2023/05/26 04:49:16;;;;;;;25.43;10.70;;;9.10;99.90;;;;;;2613441;54;20170;-74
2023/05/26 04:55:04;;;;;;;34.47;13.50;;;9.30;99.90;;;;;;2613693;54;20409;-73
2023/05/26 05:00:52;;;;;;;29.87;13.93;;;9.40;99.90;;;;;;2613799;54;20993;-73
2023/05/26 05:06:40;;;;;;;30.40;12.03;;;9.50;99.90;;;;;;2614979;54;20387;-72
2023/05/26 05:12:28;;;;;;;27.57;12.37;;;9.50;99.90;;;;;;2613977;54;20150;-73
2023/05/26 05:18:16;;;;;;;32.33;13.40;;;9.50;99.90;;;;;;2614225;54;20130;-74
2023/05/26 05:21:33;;;;;;;25.80;11.73;;;9.50;99.90;;;;;;2614847;54;20454;-74
2023/05/26 05:23:58;;;;;;;32.93;11.50;;;9.70;99.90;;;;;;2614046;54;20146;-74
2023/05/26 05:29:47;;;;;;;31.53;11.93;;;9.90;99.90;;;;;;2614898;54;20130;-73
2023/05/26 05:35:35;;;;;;;20.73;11.87;;;9.90;99.90;;;;;;2614486;39;20757;-73
2023/05/26 05:41:23;;;;;;;29.53;14.13;;;10.00;99.90;;;;;;2614827;54;20171;-74
2023/05/26 05:47:11;;;;;;;25.60;13.30;;;10.10;99.90;;;;;;2613736;54;20411;-74
2023/05/26 05:52:59;;;;;;;25.73;11.57;;;10.40;99.90;;;;;;2614885;39;20623;-73
2023/05/26 05:58:47;;;;;;;22.37;12.87;;;10.80;99.90;;;;;;2614401;54;20142;-73
2023/05/26 06:04:35;;;;;;;32.43;14.87;;;11.60;99.90;;;;;;2613010;54;20547;-73
2023/05/26 06:10:23;;;;;;;32.40;14.53;;;11.70;99.90;;;;;;2614763;54;20154;-73
2023/05/26 06:16:10;;;;;;;30.70;13.73;;;11.50;99.90;;;;;;2613887;39;20620;-73
2023/05/26 06:26:01;;;;;;;24.13;14.63;;;11.50;99.90;;;;;;2614405;54;20395;-73
2023/05/26 06:31:50;;;;;;;26.77;14.53;;;11.50;99.90;;;;;;2614560;39;20987;-72
2023/05/26 06:37:37;;;;;;;21.83;13.60;;;11.50;99.90;;;;;;2613480;54;20138;-73
2023/05/26 06:43:25;;;;;;;28.73;15.93;;;11.80;99.90;;;;;;2614991;54;20174;-73
2023/05/26 06:49:13;;;;;;;38.07;15.47;;;11.60;99.90;;;;;;2615164;54;20150;-73
2023/05/26 06:55:01;;;;;;;19.07;14.80;;;11.60;99.90;;;;;;2615613;39;20564;-73
2023/05/26 07:00:58;;;;;;;20.30;15.10;;;12.20;99.90;;;;;;2614688;54;20134;-73
2023/05/26 07:06:46;;;;;;;25.63;16.93;;;12.50;99.90;;;;;;2615812;39;20790;-73
2023/05/26 07:12:34;;;;;;;28.97;16.33;;;12.30;99.90;;;;;;2615264;54;20147;-73
2023/05/26 07:18:22;;;;;;;28.50;16.30;;;13.90;99.90;;;;;;2614687;54;20218;-73
2023/05/26 07:21:33;;;;;;;24.17;18.43;;;13.70;99.90;;;;;;2614121;54;20419;-72
2023/05/26 07:23:58;;;;;;;18.33;16.53;;;13.70;99.90;;;;;;2615246;54;20201;-73
2023/05/26 07:29:46;;;;;;;25.03;18.20;;;14.70;99.90;;;;;;2614968;54;20632;-73
2023/05/26 07:35:34;;;;;;;22.90;17.60;;;14.70;99.90;;;;;;2614524;54;20223;-73
2023/05/26 07:41:22;;;;;;;20.00;17.30;;;14.50;99.90;;;;;;2615266;54;20149;-73
2023/05/26 07:47:09;;;;;;;23.80;16.50;;;14.70;99.90;;;;;;2614403;54;20138;-73
2023/05/26 07:52:57;;;;;;;27.70;18.83;;;16.00;93.30;;;;;;2615667;39;20521;-72
2023/05/26 07:58:45;;;;;;;25.03;18.30;;;16.00;89.80;;;;;;2613969;54;20458;-72
2023/05/26 08:04:33;;;;;;;19.17;17.43;;;16.40;70.30;;;;;;2613304;54;20154;-73
2023/05/26 08:10:21;;;;;;;26.00;18.90;;;16.20;62.40;;;;;;2615003;54;20154;-73
2023/05/26 08:16:09;;;;;;;25.20;17.73;;;16.10;64.30;;;;;;2615249;54;20652;-73
2023/05/26 08:26:05;;;;;;;24.10;17.63;;;16.80;53.20;;;;;;2614807;54;20379;-73
2023/05/26 08:31:53;;;;;;;22.70;17.93;;;16.90;47.50;;;;;;2615192;54;20399;-73
2023/05/26 08:37:41;;;;;;;21.63;17.60;;;17.20;48.50;;;;;;2614740;39;20557;-73
2023/05/26 08:50:05;;;;;;;23.77;18.57;;;16.80;43.30;;;;;;2613413;54;20367;-73
2023/05/26 08:55:52;;;;;;;23.57;18.93;;;16.60;44.30;;;;;;2613344;54;20394;-73
2023/05/26 09:01:39;;;;;;;22.50;18.80;;;17.50;46.80;;;;;;2612047;54;20127;-74
2023/05/26 09:07:27;;;;;;;22.03;19.90;;;17.70;36.20;;;;;;2613315;54;20171;-74
2023/05/26 09:13:17;;;;;;;25.53;17.83;;;17.90;38.00;;;;;;2612274;46;20170;-72
2023/05/26 09:19:06;;;;;;;23.20;18.50;;;18.20;35.20;;;;;;2613556;54;20395;-73
2023/05/26 09:35:07;;;;;;;20.40;18.40;;;17.70;33.60;;;;;;2613286;54;20918;-73
2023/05/26 09:40:54;;;;;;;27.60;21.93;;;18.80;33.30;;;;;;2612995;54;20428;-73
2023/05/26 09:46:42;;;;;;;24.40;19.53;;;18.60;30.70;;;;;;2613086;54;20274;-74
2023/05/26 09:52:31;;;;;;;21.80;19.50;;;18.70;27.90;;;;;;2613579;54;20391;-73
2023/05/26 09:58:20;;;;;;;21.17;19.30;;;18.50;28.60;;;;;;2613403;54;20998;-74
2023/05/26 10:04:08;;;;;;;21.77;19.57;;;19.10;25.90;;;;;;2613311;54;20436;-73
2023/05/26 10:10:01;;;;;;;22.70;19.87;;;19.00;26.20;;;;;;2614689;54;20454;-73
2023/05/26 10:15:49;;;;;;;21.80;19.60;;;19.10;25.90;;;;;;2614060;54;20395;-74
2023/05/26 10:18:53;;;;;;;19.90;17.97;;;19.40;26.10;;;;;;2613623;51;21524;-74
2023/05/26 10:21:24;;;;;;;24.40;18.30;;;19.20;23.00;;;;;;2613353;54;20469;-73
2023/05/26 10:30:36;;;;;;;22.37;19.60;;;19.80;25.20;;;;;;2614090;54;20435;-74
2023/05/26 10:36:24;;;;;;;23.20;20.10;;;19.70;22.10;;;;;;2614244;54;20404;-73
2023/05/26 10:42:18;;;;;;;20.23;18.27;;;20.60;23.50;;;;;;2614141;39;20783;-74
2023/05/26 10:48:10;;;;;;;22.60;20.20;;;20.50;23.40;;;;;;2613246;54;20414;-73
2023/05/26 11:00:26;;;;;;;20.47;18.73;;;20.00;20.80;;;;;;2614279;54;20380;-74
2023/05/26 11:06:15;;;;;;;25.97;21.70;;;20.70;20.20;;;;;;2614312;54;20382;-73
2023/05/26 11:12:06;;;;;;;21.37;18.93;;;20.90;20.50;;;;;;2613550;54;21007;-73
2023/05/26 11:18:03;;;;;;;19.80;18.00;;;20.70;19.70;;;;;;2613923;54;20403;-74
2023/05/26 11:23:52;;;;;;;20.07;18.17;;;20.80;18.60;;;;;;2614226;54;21399;-73
2023/05/26 11:29:40;;;;;;;22.03;19.87;;;20.70;17.20;;;;;;2614101;54;20435;-74
2023/05/26 11:35:29;;;;;;;21.43;19.23;;;21.50;16.50;;;;;;2615068;54;20134;-73
2023/05/26 11:41:17;;;;;;;22.90;18.90;;;20.20;16.20;;;;;;2615159;54;20453;-74
2023/05/26 11:47:06;;;;;;;20.63;18.67;;;20.90;15.90;;;;;;2613789;54;20427;-74
2023/05/26 11:52:54;;;;;;;19.80;17.93;;;20.60;16.00;;;;;;2614077;54;20431;-73
2023/05/26 11:58:47;;;;;;;19.20;17.17;;;20.70;12.50;;;;;;2615231;54;20395;-74
2023/05/26 12:04:36;;;;;;;19.53;17.57;;;21.40;14.70;;;;;;2615223;54;20399;-74
2023/05/26 12:10:28;;;;;;;20.83;18.63;;;20.50;13.70;;;;;;2614843;39;20461;-75
2023/05/26 12:16:31;;;;;;;22.53;20.20;;;20.60;11.70;;;;;;2614807;54;20431;-74
2023/05/26 12:22:26;;;;;;;21.90;19.20;;;21.20;11.90;;;;;;2614614;54;20547;-74
2023/05/26 12:25:51;;;;;;;19.53;18.13;;;21.10;9.30;;;;;;2612452;54;20415;-74
2023/05/26 12:28:16;;;;;;;19.63;18.00;;;21.20;8.60;;;;;;2612829;46;20459;-74
2023/05/26 12:34:04;;;;;;;20.50;18.57;;;21.20;7.30;;;;;;2613516;54;20249;-74
2023/05/26 12:39:52;;;;;;;19.93;18.23;;;21.40;5.10;;;;;;2612704;54;20846;-74
2023/05/26 12:49:01;;;;;;;21.77;19.97;;;21.10;5.00;;;;;;2613311;54;20970;-73
2023/05/26 12:54:48;;;;;;;19.87;17.80;;;21.30;4.00;;;;;;2612497;39;21049;-73
2023/05/26 13:00:36;;;;;;;20.87;18.90;;;21.50;3.20;;;;;;2614140;54;20170;-73
2023/05/26 13:06:23;;;;;;;19.40;17.90;;;21.30;2.10;;;;;;2614684;54;20155;-73
2023/05/26 13:12:11;;;;;;;18.93;17.33;;;21.00;2.70;;;;;;2614379;54;20657;-73
2023/05/26 13:17:59;;;;;;;19.47;18.07;;;21.40;1.40;;;;;;2614057;54;20195;-74
2023/05/26 13:23:50;;;;;;;21.50;19.37;;;21.70;1.10;;;;;;2614770;54;20134;-73
2023/05/26 13:29:40;;;;;;;18.60;17.20;;;22.30;1.00;;;;;;2613988;54;20434;-74
2023/05/26 13:35:28;;;;;;;19.83;18.03;;;21.60;1.00;;;;;;2614567;54;20391;-74
2023/05/26 13:41:19;;;;;;;19.07;17.50;;;21.60;1.00;;;;;;2612983;54;20130;-73
2023/05/26 13:47:06;;;;;;;19.70;18.17;;;21.70;1.00;;;;;;2614341;54;20418;-74
2023/05/26 13:52:54;;;;;;;21.37;18.93;;;21.60;1.00;;;;;;2613644;46;20154;-74
2023/05/26 13:58:42;;;;;;;20.83;18.80;;;21.70;1.00;;;;;;2614263;54;20185;-73
2023/05/26 14:04:30;;;;;;;20.93;19.47;;;21.60;1.00;;;;;;2614362;54;20122;-74
2023/05/26 14:10:19;;;;;;;20.67;19.27;;;21.60;1.00;;;;;;2613796;54;20688;-73
2023/05/26 14:16:07;;;;;;;21.93;19.93;;;21.70;1.00;;;;;;2614784;54;20375;-73
2023/05/26 14:21:55;;;;;;;20.30;19.00;;;21.50;1.00;;;;;;2613234;54;20130;-74
2023/05/26 14:31:04;;;;;;;20.27;18.73;;;21.10;1.00;;;;;;2614084;54;20426;-72
2023/05/26 14:36:52;;;;;;;20.13;18.50;;;21.70;1.00;;;;;;2614782;39;20526;-73
2023/05/26 14:42:40;;;;;;;21.47;19.60;;;21.10;1.00;;;;;;2614175;54;20684;-74
2023/05/26 14:48:28;;;;;;;20.17;18.57;;;21.20;1.00;;;;;;2614378;54;20247;-74
2023/05/26 14:54:16;;;;;;;20.83;19.40;;;21.90;1.00;;;;;;2614496;54;20235;-74
2023/05/26 15:00:06;;;;;;;21.33;20.03;;;21.20;1.00;;;;;;2614315;54;20118;-74
2023/05/26 15:05:53;;;;;;;20.80;19.17;;;21.60;1.00;;;;;;2615217;54;21327;-74
2023/05/26 15:11:44;;;;;;;20.90;19.23;;;21.30;1.00;;;;;;2614137;54;20411;-72
2023/05/26 15:17:32;;;;;;;21.67;19.80;;;21.00;1.00;;;;;;2616109;31;20832;-74
2023/05/26 15:23:19;;;;;;;21.23;19.63;;;21.20;1.00;;;;;;2615248;54;20158;-74
2023/05/26 15:26:24;;;;;;;20.67;18.93;;;21.10;1.00;;;;;;2614501;39;20810;-72
2023/05/26 15:28:50;;;;;;;20.43;18.70;;;21.70;1.00;;;;;;2614463;54;20166;-73
2023/05/26 15:34:38;;;;;;;19.90;18.50;;;21.10;1.00;;;;;;2614936;54;20122;-73
2023/05/26 15:40:26;;;;;;;20.60;19.00;;;20.50;1.00;;;;;;2614316;54;20145;-74
2023/05/26 15:46:14;;;;;;;19.93;18.43;;;20.80;1.00;;;;;;2614970;54;20278;-74
2023/05/26 15:52:02;;;;;;;21.80;18.93;;;21.20;1.00;;;;;;2614818;54;20127;-71
2023/05/26 15:57:51;;;;;;;20.30;18.70;;;20.80;1.00;;;;;;2613712;54;20419;-73
2023/05/26 16:03:38;;;;;;;20.57;18.93;;;21.10;1.00;;;;;;2614497;54;20388;-73
2023/05/26 16:09:26;;;;;;;20.40;18.67;;;21.40;1.00;;;;;;2611722;54;20142;-74
2023/05/26 16:15:14;;;;;;;21.13;19.27;;;21.30;1.00;;;;;;2614512;46;20579;-74
2023/05/26 16:21:03;;;;;;;19.03;17.40;;;22.00;1.00;;;;;;2614864;54;20162;-73
2023/05/26 16:30:56;;;;;;;20.00;18.70;;;21.00;1.00;;;;;;2614546;54;20467;-72
2023/05/26 16:36:44;;;;;;;21.63;19.57;;;20.80;1.00;;;;;;2614543;54;20435;-74
2023/05/26 16:42:32;;;;;;;20.27;18.73;;;20.50;1.00;;;;;;2614605;54;20166;-73
2023/05/26 16:48:20;;;;;;;19.37;17.77;;;19.90;2.00;;;;;;2612230;54;20126;-73
2023/05/26 16:54:08;;;;;;;19.57;17.90;;;19.90;1.60;;;;;;2612947;54;20226;-73
2023/05/26 16:59:56;;;;;;;20.63;18.90;;;19.90;2.20;;;;;;2611829;54;20760;-74
2023/05/26 17:05:44;;;;;;;19.90;18.53;;;19.90;1.00;;;;;;2613646;54;20118;-73
2023/05/26 17:11:32;;;;;;;18.90;17.60;;;19.60;2.00;;;;;;2611215;54;20434;-73
2023/05/26 17:17:20;;;;;;;20.90;18.77;;;19.60;2.10;;;;;;2612595;54;20395;-72
2023/05/26 17:23:11;;;;;;;19.33;17.77;;;19.20;1.90;;;;;;2610409;31;20803;-75
2023/05/26 17:26:27;;;;;;;20.33;18.93;;;18.90;2.90;;;;;;2613082;54;20450;-74
2023/05/26 17:28:53;;;;;;;18.97;17.67;;;18.80;2.20;;;;;;2613069;54;20416;-74
2023/05/26 17:34:41;;;;;;;19.80;17.60;;;18.60;1.10;;;;;;2614401;46;20223;-74
2023/05/26 17:40:29;;;;;;;18.20;16.90;;;18.60;1.00;;;;;;2614457;54;20135;-74
2023/05/26 17:46:17;;;;;;;19.93;18.40;;;18.30;3.30;;;;;;2611716;54;20415;-75
2023/05/26 17:52:04;;;;;;;19.70;18.27;;;18.00;4.40;;;;;;2610753;54;20664;-75
2023/05/26 17:57:52;;;;;;;18.93;17.30;;;17.90;6.00;;;;;;2610757;54;20222;-74
2023/05/26 18:03:41;;;;;;;18.70;17.50;;;17.70;7.60;;;;;;2609652;54;20134;-73
2023/05/26 18:09:30;;;;;;;19.37;17.60;;;17.50;7.90;;;;;;2609476;54;20394;-75
2023/05/26 18:15:18;;;;;;;18.60;17.00;;;17.40;9.40;;;;;;2611830;54;20391;-73
2023/05/26 18:21:06;;;;;;;19.87;18.17;;;17.20;8.70;;;;;;2611698;54;20154;-74
2023/05/26 18:30:57;;;;;;;18.20;16.67;;;16.90;7.10;;;;;;2614266;54;20450;-74
2023/05/26 18:36:45;;;;;;;19.27;17.67;;;16.70;7.40;;;;;;2613935;54;20403;-74
2023/05/26 18:42:35;;;;;;;20.23;18.20;;;16.60;8.00;;;;;;2614011;54;21040;-75
2023/05/26 18:48:22;;;;;;;19.53;17.80;;;16.50;9.40;;;;;;2612444;54;20383;-74
2023/05/26 18:54:11;;;;;;;20.50;18.73;;;16.20;10.70;;;;;;2613931;54;20174;-74
2023/05/26 19:00:00;;;;;;;19.30;17.60;;;16.10;12.40;;;;;;2614390;39;20764;-74
2023/05/26 19:05:48;;;;;;;19.30;17.77;;;15.90;13.10;;;;;;2613773;54;20398;-74
2023/05/26 19:11:36;;;;;;;18.50;17.13;;;15.80;13.70;;;;;;2612194;54;20263;-74
2023/05/26 19:17:24;;;;;;;20.27;17.80;;;15.60;14.60;;;;;;2611985;54;20388;-74
2023/05/26 19:23:13;;;;;;;18.07;16.53;;;15.50;15.60;;;;;;2611817;54;20391;-75
2023/05/26 19:29:11;;;;;;;19.27;18.07;;;15.40;16.20;;;;;;2611385;47;20159;-73
2023/05/26 19:34:58;;;;;;;19.60;17.90;;;15.20;17.50;;;;;;2611778;39;20919;-74
2023/05/26 19:40:46;;;;;;;18.03;16.73;;;15.10;18.10;;;;;;2612311;54;20138;-74
2023/05/26 19:46:33;;;;;;;18.93;17.23;;;15.00;19.80;;;;;;2611620;54;20130;-74
2023/05/26 19:52:20;;;;;;;18.53;16.97;;;14.80;21.40;;;;;;2610286;54;20183;-75
2023/05/26 19:58:07;;;;;;;20.20;17.17;;;14.60;23.60;;;;;;2609946;54;20234;-74
2023/05/26 20:03:55;;;;;;;20.03;18.00;;;14.50;26.80;;;;;;2611234;54;20154;-74
2023/05/26 20:09:43;;;;;;;19.93;18.00;;;14.20;30.00;;;;;;2614791;54;20174;-74
2023/05/26 20:15:32;;;;;;;18.40;16.60;;;14.10;35.10;;;;;;2613140;54;20399;-74
2023/05/26 20:21:19;;;;;;;18.57;17.00;;;14.00;39.90;;;;;;2613763;54;20667;-75
2023/05/26 20:31:00;;;;;;;19.33;17.63;;;13.80;49.20;;;;;;2611789;54;20434;-74
2023/05/26 20:36:50;;;;;;;18.60;16.40;;;13.60;57.00;;;;;;2609739;54;20415;-74
2023/05/26 20:42:38;;;;;;;19.10;16.70;;;13.50;63.70;;;;;;2609585;54;20423;-74
2023/05/26 20:48:26;;;;;;;18.10;15.90;;;13.30;74.30;;;;;;2610081;54;20134;-74
2023/05/26 20:54:13;;;;;;;26.27;16.97;;;13.30;77.90;;;;;;2610428;46;20161;-74
2023/05/26 21:00:01;;;;;;;17.30;15.70;;;13.20;85.20;;;;;;2611051;54;20139;-74
2023/05/26 21:05:49;;;;;;;18.43;16.90;;;13.10;90.70;;;;;;2610797;54;20414;-73
2023/05/26 21:11:37;;;;;;;16.87;15.27;;;13.10;94.20;;;;;;2610836;54;20165;-74
2023/05/26 21:17:25;;;;;;;21.20;15.87;;;12.80;99.90;;;;;;2609645;54;21109;-74
2023/05/26 21:23:15;;;;;;;19.07;17.07;;;12.70;99.90;;;;;;2610930;46;20226;-74
2023/05/26 21:26:27;;;;;;;17.70;15.13;;;12.60;99.90;;;;;;2607548;54;20426;-74
2023/05/26 21:28:53;;;;;;;21.83;15.40;;;12.50;99.90;;;;;;2607891;47;20427;-73
2023/05/26 21:34:41;;;;;;;23.20;16.30;;;12.40;99.90;;;;;;2613354;54;20226;-74
2023/05/26 21:40:28;;;;;;;18.50;16.80;;;12.30;99.90;;;;;;2613291;54;20154;-73
2023/05/26 21:46:17;;;;;;;19.70;16.07;;;12.20;99.90;;;;;;2610277;54;20130;-75
2023/05/26 21:52:05;;;;;;;20.40;16.57;;;12.20;99.90;;;;;;2610546;54;20407;-74
2023/05/26 21:57:52;;;;;;;18.67;16.53;;;12.00;99.90;;;;;;2608347;54;20134;-73
2023/05/26 22:03:40;;;;;;;17.73;16.03;;;12.00;99.90;;;;;;2610303;54;20158;-74
2023/05/26 22:09:28;;;;;;;24.50;16.43;;;12.00;99.90;;;;;;2611196;54;20644;-74
2023/05/26 22:15:16;;;;;;;16.47;15.00;;;11.80;99.90;;;;;;2610465;39;20531;-74
2023/05/26 22:21:05;;;;;;;17.70;15.57;;;11.70;99.90;;;;;;2610083;54;20387;-73
2023/05/26 22:30:55;;;;;;;17.20;15.23;;;11.50;99.90;;;;;;2609853;54;20399;-74
2023/05/26 22:36:43;;;;;;;16.20;14.37;;;11.40;99.90;;;;;;2613492;54;20391;-73
2023/05/26 22:42:31;;;;;;;21.70;15.87;;;11.30;99.90;;;;;;2611161;54;20149;-73
2023/05/26 22:48:20;;;;;;;19.17;14.33;;;11.30;99.90;;;;;;2611062;54;20137;-74
2023/05/26 22:54:08;;;;;;;19.90;14.07;;;11.30;99.90;;;;;;2609810;54;20391;-73
2023/05/26 22:59:56;;;;;;;27.70;14.93;;;11.20;99.90;;;;;;2610528;54;21079;-74
2023/05/26 23:05:44;;;;;;;23.37;14.10;;;11.10;99.90;;;;;;2609719;54;20133;-73
2023/05/26 23:11:31;;;;;;;15.67;14.13;;;11.00;99.90;;;;;;2609608;54;20238;-72
2023/05/26 23:17:19;;;;;;;16.37;14.43;;;10.80;99.90;;;;;;2608924;54;20146;-73
2023/05/26 23:23:07;;;;;;;16.67;14.47;;;10.70;99.90;;;;;;2611345;54;20394;-74
2023/05/26 23:26:27;;;;;;;21.70;15.23;;;10.50;99.90;;;;;;2611896;47;20431;-73
2023/05/26 23:28:53;;;;;;;19.30;13.70;;;10.60;99.90;;;;;;2612102;39;20582;-74
2023/05/26 23:34:41;;;;;;;23.00;13.83;;;10.40;99.90;;;;;;2610210;46;20150;-74
2023/05/26 23:40:30;;;;;;;14.90;13.07;;;10.30;99.90;;;;;;2610660;54;20403;-73
2023/05/26 23:46:18;;;;;;;16.70;12.60;;;10.30;99.90;;;;;;2610364;54;20400;-73
2023/05/26 23:52:07;;;;;;;24.97;14.23;;;10.20;99.90;;;;;;2609557;54;20685;-73
2023/05/26 23:57:55;;;;;;;26.43;13.47;;;10.20;99.90;;;;;;2611471;54;20395;-73
